createdAt,value
2018-03-16T00:04:10.331Z,3.80
2018-03-16T00:09:13.602Z,4.13
2018-03-16T00:14:16.843Z,3.10
2018-03-16T00:19:20.069Z,3.70
2018-03-16T00:24:23.271Z,3.70
2018-03-16T00:29:26.477Z,3.67
2018-03-16T00:34:29.671Z,3.50
2018-03-16T00:39:32.925Z,3.70
2018-03-16T00:44:36.631Z,2.60
2018-03-16T00:49:40.036Z,2.50
2018-03-16T00:54:43.243Z,3.23
2018-03-16T00:59:46.440Z,2.37
2018-03-16T01:04:50.804Z,3.23
2018-03-16T01:09:54.421Z,2.47
2018-03-16T01:14:58.012Z,2.70
2018-03-16T01:20:01.261Z,2.67
2018-03-16T01:25:05.167Z,2.87
2018-03-16T01:30:08.376Z,2.40
2018-03-16T01:35:11.576Z,2.13
2018-03-16T01:40:14.784Z,1.90
2018-03-16T01:45:18.057Z,2.00
2018-03-16T01:50:21.535Z,3.43
2018-03-16T01:55:24.749Z,2.07
2018-03-16T02:00:27.955Z,2.33
2018-03-16T02:05:31.216Z,2.47
2018-03-16T02:10:34.476Z,2.83
2018-03-16T02:15:37.809Z,1.90
2018-03-16T02:20:41.230Z,2.73
2018-03-16T02:25:45.834Z,2.63
2018-03-16T02:30:49.107Z,3.10
2018-03-16T02:35:52.573Z,2.83
2018-03-16T02:40:56.248Z,3.80
2018-03-16T02:45:59.452Z,3.07
2018-03-16T02:51:02.657Z,2.87
2018-03-16T02:56:05.870Z,2.33
2018-03-16T03:01:09.087Z,2.40
2018-03-16T03:06:12.289Z,3.77
2018-03-16T03:11:15.618Z,3.50
2018-03-16T03:16:18.818Z,3.60
2018-03-16T03:21:22.106Z,2.60
2018-03-16T03:26:25.450Z,5.20
2018-03-16T03:31:29.078Z,3.07
2018-03-16T03:36:32.676Z,3.37
2018-03-16T03:41:35.880Z,2.53
2018-03-16T03:46:39.103Z,2.67
2018-03-16T03:51:42.797Z,4.53
2018-03-16T03:56:46.012Z,3.77
2018-03-16T04:01:49.617Z,3.47
2018-03-16T04:06:52.925Z,6.17
2018-03-16T04:11:56.139Z,6.20
2018-03-16T04:16:59.738Z,4.97
2018-03-16T04:22:03.103Z,4.57
2018-03-16T04:27:06.327Z,3.33
2018-03-16T04:32:09.689Z,3.27
2018-03-16T04:37:12.887Z,3.07
2018-03-16T04:42:16.474Z,2.73
2018-03-16T04:47:19.692Z,3.33
2018-03-16T04:52:22.904Z,4.27
2018-03-16T04:57:26.521Z,6.30
2018-03-16T05:02:30.229Z,4.00
2018-03-16T05:07:33.428Z,4.27
2018-03-16T05:12:36.645Z,6.00
2018-03-16T05:17:39.849Z,5.40
2018-03-16T05:22:43.562Z,4.17
2018-03-16T05:27:46.772Z,3.70
2018-03-16T05:32:50.411Z,6.03
2018-03-16T05:37:54.023Z,6.30
2018-03-16T05:42:57.241Z,4.47
2018-03-16T05:48:02.436Z,10.50
2018-03-16T05:53:05.908Z,6.10
2018-03-16T05:58:09.316Z,6.50
2018-03-16T06:03:12.598Z,6.23
2018-03-16T06:08:16.330Z,5.43
2018-03-16T06:13:19.540Z,6.40
2018-03-16T06:18:22.942Z,9.23
2018-03-16T06:23:26.540Z,6.97
2018-03-16T06:28:30.309Z,8.40
2018-03-16T06:33:33.521Z,8.87
2018-03-16T06:38:36.723Z,11.57
2018-03-16T06:43:40.041Z,7.87
2018-03-16T06:48:44.076Z,9.23
2018-03-16T06:53:48.177Z,11.20
2018-03-16T06:58:51.387Z,9.40
2018-03-16T07:03:54.597Z,7.50
2018-03-16T07:08:57.829Z,7.60
2018-03-16T07:14:01.044Z,9.83
2018-03-16T07:19:04.663Z,10.73
2018-03-16T07:24:08.274Z,10.07
2018-03-16T07:29:11.484Z,11.33
2018-03-16T07:34:15.143Z,7.53
2018-03-16T07:39:18.902Z,13.87
2018-03-16T07:44:22.702Z,7.33
2018-03-16T07:49:25.914Z,9.33
2018-03-16T07:54:29.650Z,9.70
2018-03-16T07:59:33.282Z,7.50
2018-03-16T08:04:36.895Z,17.67
2018-03-16T08:09:40.596Z,8.60
2018-03-16T08:14:44.923Z,11.20
2018-03-16T08:19:48.152Z,10.33
2018-03-16T08:24:51.851Z,12.60
2018-03-16T08:29:55.082Z,9.00
2018-03-16T08:34:59.592Z,10.23
2018-03-16T08:40:02.864Z,10.17
2018-03-16T08:45:06.078Z,9.63
2018-03-16T08:50:09.309Z,7.70
2018-03-16T08:55:12.523Z,11.67
2018-03-16T09:00:16.142Z,8.87
2018-03-16T09:05:19.858Z,10.07
2018-03-16T09:10:23.466Z,9.07
2018-03-16T09:15:26.740Z,9.27
2018-03-16T09:20:30.048Z,12.03
2018-03-16T09:25:33.401Z,11.03
2018-03-16T09:30:36.641Z,8.07
2018-03-16T09:35:39.857Z,9.70
2018-03-16T09:40:43.060Z,9.37
2018-03-16T09:45:46.274Z,10.17
2018-03-16T09:50:49.508Z,7.07
2018-03-16T09:55:53.193Z,8.63
2018-03-16T10:00:56.439Z,11.77
2018-03-16T10:05:59.673Z,9.20
2018-03-16T10:11:02.896Z,7.77
2018-03-16T10:16:06.143Z,8.50
2018-03-16T10:21:09.423Z,5.67
2018-03-16T10:26:12.632Z,6.00
2018-03-16T10:31:15.842Z,4.33
2018-03-16T10:36:19.049Z,5.07
2018-03-16T10:41:22.343Z,7.77
2018-03-16T10:46:25.562Z,4.90
2018-03-16T10:51:28.896Z,5.57
2018-03-16T10:56:32.169Z,4.57
2018-03-16T11:01:41.139Z,4.27
2018-03-16T11:06:47.299Z,6.07
2018-03-16T11:11:50.523Z,6.90
2018-03-16T11:16:53.738Z,5.40
2018-03-16T11:21:57.346Z,4.23
2018-03-16T11:27:01.373Z,3.97
2018-03-16T11:32:05.058Z,4.43
2018-03-16T11:37:08.832Z,5.22
2018-03-16T11:42:12.292Z,2.90
2018-03-16T11:47:15.636Z,8.57
2018-03-16T11:52:19.276Z,6.22
2018-03-16T11:57:22.524Z,4.45
2018-03-16T12:02:25.851Z,5.53
2018-03-16T12:07:29.645Z,2.80
2018-03-16T12:12:32.951Z,2.47
2018-03-16T12:17:36.193Z,5.87
2018-03-16T12:22:39.839Z,1.57
2018-03-16T12:27:43.083Z,1.87
2018-03-16T12:32:46.422Z,2.63
2018-03-16T12:37:50.450Z,3.63
2018-03-16T12:42:54.348Z,2.57
2018-03-16T12:47:58.146Z,4.37
2018-03-16T12:53:01.698Z,7.57
2018-03-16T12:58:05.666Z,3.27
2018-03-16T13:03:09.138Z,3.40
2018-03-16T13:08:13.145Z,3.77
2018-03-16T13:13:16.454Z,4.87
2018-03-16T13:18:20.263Z,3.03
2018-03-16T13:23:23.528Z,3.13
2018-03-16T13:28:27.456Z,3.87
2018-03-16T13:33:30.878Z,5.17
2018-03-16T13:38:35.050Z,3.97
2018-03-16T13:43:39.270Z,1.77
2018-03-16T13:48:42.889Z,4.30
2018-03-16T13:53:46.111Z,2.65
2018-03-16T13:58:49.342Z,2.62
2018-03-16T14:03:52.715Z,8.85
2018-03-16T14:08:56.327Z,2.40
2018-03-16T14:13:59.541Z,2.03
2018-03-16T14:19:03.302Z,1.33
2018-03-16T14:24:08.054Z,2.60
2018-03-16T14:29:11.337Z,1.30
2018-03-16T14:34:16.111Z,4.60
2018-03-16T14:39:19.517Z,3.30
2018-03-16T14:44:23.262Z,1.48
2018-03-16T14:49:26.963Z,5.35
2018-03-16T14:54:30.658Z,2.65
2018-03-16T14:59:33.937Z,4.45
2018-03-16T15:04:37.308Z,2.15
2018-03-16T15:09:40.518Z,3.70
2018-03-16T15:14:44.130Z,7.00
2018-03-16T15:19:47.349Z,4.50
2018-03-16T15:24:50.971Z,6.03
2018-03-16T15:29:54.591Z,9.27
2018-03-16T15:34:57.986Z,12.57
2018-03-16T15:40:01.605Z,5.73
2018-03-16T15:45:05.311Z,4.23
2018-03-16T15:50:08.534Z,5.30
2018-03-16T15:55:12.177Z,5.73
2018-03-16T16:00:15.434Z,5.17
2018-03-16T16:05:19.065Z,5.60
2018-03-16T16:10:22.693Z,9.13
2018-03-16T16:15:26.901Z,7.57
2018-03-16T16:20:30.537Z,6.93
2018-03-16T16:25:33.773Z,4.77
2018-03-16T16:30:37.336Z,9.60
2018-03-16T16:35:40.957Z,5.10
2018-03-16T16:40:44.621Z,5.57
2018-03-16T16:45:47.833Z,4.20
2018-03-16T16:50:51.273Z,7.07
2018-03-16T16:55:54.551Z,6.87
2018-03-16T17:00:57.772Z,7.47
2018-03-16T17:06:00.987Z,6.67
2018-03-16T17:11:04.677Z,6.43
2018-03-16T17:16:07.897Z,7.40
2018-03-16T17:21:11.110Z,11.27
2018-03-16T17:26:14.322Z,7.43
2018-03-16T17:31:17.524Z,7.40
2018-03-16T17:36:20.745Z,5.93
2018-03-16T17:41:24.358Z,6.43
2018-03-16T17:46:28.075Z,11.40
2018-03-16T17:51:31.684Z,9.37
2018-03-16T17:56:35.281Z,6.73
2018-03-16T18:01:38.598Z,8.10
2018-03-16T18:06:41.803Z,8.57
2018-03-16T18:11:45.018Z,4.43
2018-03-16T18:16:48.612Z,7.33
2018-03-16T18:21:52.140Z,14.40
2018-03-16T18:26:55.813Z,5.93
2018-03-16T18:31:59.066Z,6.27
2018-03-16T18:37:02.696Z,10.73
2018-03-16T18:42:06.291Z,6.20
2018-03-16T18:47:09.919Z,6.20
2018-03-16T18:52:13.593Z,7.17
2018-03-16T18:57:16.846Z,7.47
2018-03-16T19:02:20.448Z,7.43
2018-03-16T19:07:24.057Z,8.03
2018-03-16T19:12:27.265Z,7.20
2018-03-16T19:17:30.467Z,6.63
2018-03-16T19:22:33.702Z,4.93
2018-03-16T19:27:36.936Z,7.87
2018-03-16T19:32:40.166Z,9.63
2018-03-16T19:37:43.382Z,6.17
2018-03-16T19:42:46.596Z,7.47
2018-03-16T19:47:49.877Z,7.77
2018-03-16T19:52:53.097Z,6.57
2018-03-16T19:57:56.333Z,12.80
2018-03-16T20:02:59.939Z,8.23
2018-03-16T20:08:03.640Z,9.13
2018-03-16T20:13:06.852Z,8.77
2018-03-16T20:18:10.188Z,6.17
2018-03-16T20:23:13.392Z,10.13
2018-03-16T20:28:16.609Z,10.47
2018-03-16T20:33:19.808Z,8.37
2018-03-16T20:38:23.004Z,8.77
2018-03-16T20:43:26.214Z,11.83
2018-03-16T20:48:29.445Z,10.47
2018-03-16T20:53:32.652Z,9.10
2018-03-16T20:58:35.905Z,9.03
2018-03-16T21:03:39.508Z,10.07
2018-03-16T21:08:42.709Z,9.30
2018-03-16T21:13:45.920Z,10.83
2018-03-16T21:18:49.128Z,10.13
2018-03-16T21:23:52.729Z,15.93
2018-03-16T21:28:55.944Z,12.23
2018-03-16T21:33:59.152Z,9.90
2018-03-16T21:39:03.421Z,9.40
2018-03-16T21:44:06.624Z,10.90
2018-03-16T21:49:09.891Z,11.00
2018-03-16T21:54:13.504Z,7.53
2018-03-16T21:59:16.814Z,9.73
2018-03-16T22:04:23.616Z,10.70
2018-03-16T22:09:29.372Z,8.57
2018-03-16T22:14:32.581Z,4.93
2018-03-16T22:19:35.786Z,8.03
2018-03-16T22:24:39.398Z,5.73
2018-03-16T22:29:43.167Z,6.17
2018-03-16T22:34:46.458Z,6.53
2018-03-16T22:39:49.665Z,8.40
2018-03-16T22:44:52.867Z,6.80
2018-03-16T22:49:56.063Z,9.87
2018-03-16T22:54:59.512Z,6.60
2018-03-16T23:00:02.745Z,6.20
2018-03-16T23:05:05.964Z,8.23
2018-03-16T23:10:09.630Z,7.73
2018-03-16T23:15:12.832Z,6.77
2018-03-16T23:20:16.112Z,7.87
2018-03-16T23:25:19.313Z,7.17
2018-03-16T23:30:23.100Z,6.50
2018-03-16T23:35:26.314Z,7.57
2018-03-16T23:40:29.589Z,4.57
2018-03-16T23:45:32.801Z,4.50
2018-03-16T23:50:36.081Z,6.13
2018-03-16T23:55:39.279Z,5.00
